sensor_id;sensor_type;location;lat;lon;timestamp;P1;durP1;ratioP1;P2;durP2;ratioP2
21091;SDS011;10704;42.678;23.288;2023-04-24T00:00:14;15.07;;;9.52;;
21091;SDS011;10704;42.678;23.288;2023-04-24T00:02:41;15.80;;;8.93;;
21091;SDS011;10704;42.678;23.288;2023-04-24T00:05:11;12.32;;;8.57;;
21091;SDS011;10704;42.678;23.288;2023-04-24T00:07:39;14.63;;;8.18;;
21091;SDS011;10704;42.678;23.288;2023-04-24T00:10:05;12.48;;;8.63;;
21091;SDS011;10704;42.678;23.288;2023-04-24T00:12:32;11.25;;;8.30;;
21091;SDS011;10704;42.678;23.288;2023-04-24T00:14:59;18.05;;;10.10;;
21091;SDS011;10704;42.678;23.288;2023-04-24T00:17:26;18.73;;;11.05;;
21091;SDS011;10704;42.678;23.288;2023-04-24T00:19:52;16.15;;;8.65;;
21091;SDS011;10704;42.678;23.288;2023-04-24T00:22:27;13.85;;;9.32;;
21091;SDS011;10704;42.678;23.288;2023-04-24T00:24:54;16.73;;;10.10;;
21091;SDS011;10704;42.678;23.288;2023-04-24T00:27:20;14.60;;;9.50;;
21091;SDS011;10704;42.678;23.288;2023-04-24T00:29:46;15.65;;;10.60;;
21091;SDS011;10704;42.678;23.288;2023-04-24T00:32:12;18.70;;;10.23;;
21091;SDS011;10704;42.678;23.288;2023-04-24T00:34:39;15.63;;;11.43;;
21091;SDS011;10704;42.678;23.288;2023-04-24T00:37:05;20.50;;;11.23;;
21091;SDS011;10704;42.678;23.288;2023-04-24T00:39:31;15.35;;;10.80;;
21091;SDS011;10704;42.678;23.288;2023-04-24T00:41:58;20.92;;;12.45;;
21091;SDS011;10704;42.678;23.288;2023-04-24T00:44:24;18.17;;;11.43;;
21091;SDS011;10704;42.678;23.288;2023-04-24T00:46:50;17.92;;;12.13;;
21091;SDS011;10704;42.678;23.288;2023-04-24T00:49:20;20.27;;;11.73;;
21091;SDS011;10704;42.678;23.288;2023-04-24T00:51:47;15.77;;;10.40;;
21091;SDS011;10704;42.678;23.288;2023-04-24T00:54:14;19.30;;;10.55;;
21091;SDS011;10704;42.678;23.288;2023-04-24T00:56:41;12.38;;;8.52;;
21091;SDS011;10704;42.678;23.288;2023-04-24T00:59:09;13.43;;;8.98;;
21091;SDS011;10704;42.678;23.288;2023-04-24T01:01:36;17.60;;;10.15;;
21091;SDS011;10704;42.678;23.288;2023-04-24T01:04:02;17.15;;;11.48;;
21091;SDS011;10704;42.678;23.288;2023-04-24T01:06:28;22.08;;;11.93;;
21091;SDS011;10704;42.678;23.288;2023-04-24T01:08:57;19.27;;;11.38;;
21091;SDS011;10704;42.678;23.288;2023-04-24T01:11:24;20.45;;;12.27;;
21091;SDS011;10704;42.678;23.288;2023-04-24T01:13:51;23.05;;;12.27;;
21091;SDS011;10704;42.678;23.288;2023-04-24T01:16:18;15.65;;;10.95;;
21091;SDS011;10704;42.678;23.288;2023-04-24T01:18:47;16.35;;;9.30;;
21091;SDS011;10704;42.678;23.288;2023-04-24T01:21:14;14.68;;;9.77;;
21091;SDS011;10704;42.678;23.288;2023-04-24T01:23:44;12.60;;;8.50;;
21091;SDS011;10704;42.678;23.288;2023-04-24T01:26:11;14.65;;;7.88;;
21091;SDS011;10704;42.678;23.288;2023-04-24T01:28:38;15.13;;;8.73;;
21091;SDS011;10704;42.678;23.288;2023-04-24T01:31:04;13.77;;;6.97;;
21091;SDS011;10704;42.678;23.288;2023-04-24T01:33:31;10.00;;;6.70;;
21091;SDS011;10704;42.678;23.288;2023-04-24T01:35:57;10.55;;;6.57;;
21091;SDS011;10704;42.678;23.288;2023-04-24T01:38:24;10.30;;;5.82;;
21091;SDS011;10704;42.678;23.288;2023-04-24T01:40:50;11.77;;;6.38;;
21091;SDS011;10704;42.678;23.288;2023-04-24T01:43:16;8.98;;;5.70;;
21091;SDS011;10704;42.678;23.288;2023-04-24T01:45:43;10.48;;;6.47;;
21091;SDS011;10704;42.678;23.288;2023-04-24T01:48:09;12.82;;;6.47;;
21091;SDS011;10704;42.678;23.288;2023-04-24T01:50:37;9.25;;;5.80;;
21091;SDS011;10704;42.678;23.288;2023-04-24T01:53:03;10.15;;;6.00;;
21091;SDS011;10704;42.678;23.288;2023-04-24T01:55:29;12.15;;;6.03;;
21091;SDS011;10704;42.678;23.288;2023-04-24T01:57:55;12.05;;;6.07;;
21091;SDS011;10704;42.678;23.288;2023-04-24T02:00:22;14.27;;;6.50;;
21091;SDS011;10704;42.678;23.288;2023-04-24T02:02:50;10.82;;;6.18;;
21091;SDS011;10704;42.678;23.288;2023-04-24T02:05:17;8.82;;;5.93;;
21091;SDS011;10704;42.678;23.288;2023-04-24T02:07:42;10.35;;;5.85;;
21091;SDS011;10704;42.678;23.288;2023-04-24T02:10:09;9.20;;;5.80;;
21091;SDS011;10704;42.678;23.288;2023-04-24T02:12:35;12.23;;;6.47;;
21091;SDS011;10704;42.678;23.288;2023-04-24T02:15:01;9.80;;;5.68;;
21091;SDS011;10704;42.678;23.288;2023-04-24T02:17:27;11.45;;;5.75;;
21091;SDS011;10704;42.678;23.288;2023-04-24T02:19:53;9.10;;;6.28;;
21091;SDS011;10704;42.678;23.288;2023-04-24T02:22:19;10.13;;;5.93;;
21091;SDS011;10704;42.678;23.288;2023-04-24T02:24:45;12.30;;;7.72;;
21091;SDS011;10704;42.678;23.288;2023-04-24T02:27:13;10.25;;;6.85;;
21091;SDS011;10704;42.678;23.288;2023-04-24T02:29:40;13.88;;;8.40;;
21091;SDS011;10704;42.678;23.288;2023-04-24T02:32:05;14.32;;;9.35;;
21091;SDS011;10704;42.678;23.288;2023-04-24T02:34:32;14.77;;;8.60;;
21091;SDS011;10704;42.678;23.288;2023-04-24T02:36:58;12.10;;;7.70;;
21091;SDS011;10704;42.678;23.288;2023-04-24T02:39:24;12.90;;;7.38;;
21091;SDS011;10704;42.678;23.288;2023-04-24T02:41:51;12.50;;;7.85;;
21091;SDS011;10704;42.678;23.288;2023-04-24T02:44:17;12.10;;;7.13;;
21091;SDS011;10704;42.678;23.288;2023-04-24T02:46:43;14.90;;;7.90;;
21091;SDS011;10704;42.678;23.288;2023-04-24T02:49:09;14.90;;;7.30;;
21091;SDS011;10704;42.678;23.288;2023-04-24T02:51:37;11.95;;;7.95;;
21091;SDS011;10704;42.678;23.288;2023-04-24T02:54:06;14.18;;;9.20;;
21091;SDS011;10704;42.678;23.288;2023-04-24T02:56:34;14.93;;;9.32;;
21091;SDS011;10704;42.678;23.288;2023-04-24T02:59:00;15.90;;;10.25;;
21091;SDS011;10704;42.678;23.288;2023-04-24T03:01:26;17.02;;;10.48;;
21091;SDS011;10704;42.678;23.288;2023-04-24T03:03:52;20.02;;;11.40;;
21091;SDS011;10704;42.678;23.288;2023-04-24T03:06:18;17.83;;;10.30;;
21091;SDS011;10704;42.678;23.288;2023-04-24T03:08:43;17.10;;;11.15;;
21091;SDS011;10704;42.678;23.288;2023-04-24T03:11:10;18.58;;;9.93;;
21091;SDS011;10704;42.678;23.288;2023-04-24T03:13:36;17.08;;;11.05;;
21091;SDS011;10704;42.678;23.288;2023-04-24T03:16:02;18.75;;;11.32;;
21091;SDS011;10704;42.678;23.288;2023-04-24T03:18:28;19.77;;;12.18;;
21091;SDS011;10704;42.678;23.288;2023-04-24T03:20:54;20.02;;;11.60;;
21091;SDS011;10704;42.678;23.288;2023-04-24T03:23:19;21.73;;;11.90;;
21091;SDS011;10704;42.678;23.288;2023-04-24T03:25:46;16.23;;;10.48;;
21091;SDS011;10704;42.678;23.288;2023-04-24T03:28:14;16.20;;;11.05;;
21091;SDS011;10704;42.678;23.288;2023-04-24T03:30:43;19.45;;;10.65;;
21091;SDS011;10704;42.678;23.288;2023-04-24T03:33:10;18.52;;;11.90;;
21091;SDS011;10704;42.678;23.288;2023-04-24T03:35:42;17.52;;;11.55;;
21091;SDS011;10704;42.678;23.288;2023-04-24T03:38:10;19.80;;;11.75;;
21091;SDS011;10704;42.678;23.288;2023-04-24T03:41:08;15.80;;;10.40;;
21091;SDS011;10704;42.678;23.288;2023-04-24T03:43:39;18.38;;;10.93;;
21091;SDS011;10704;42.678;23.288;2023-04-24T03:46:05;18.40;;;11.85;;
21091;SDS011;10704;42.678;23.288;2023-04-24T03:48:38;18.83;;;10.38;;
21091;SDS011;10704;42.678;23.288;2023-04-24T03:51:04;14.77;;;10.35;;
21091;SDS011;10704;42.678;23.288;2023-04-24T03:53:32;24.98;;;11.30;;
21091;SDS011;10704;42.678;23.288;2023-04-24T03:55:58;19.65;;;11.13;;
21091;SDS011;10704;42.678;23.288;2023-04-24T03:58:24;16.33;;;10.27;;
21091;SDS011;10704;42.678;23.288;2023-04-24T04:00:52;16.75;;;11.05;;
21091;SDS011;10704;42.678;23.288;2023-04-24T04:03:43;16.00;;;10.38;;
21091;SDS011;10704;42.678;23.288;2023-04-24T04:06:09;15.07;;;9.80;;
21091;SDS011;10704;42.678;23.288;2023-04-24T04:08:37;17.63;;;10.70;;
21091;SDS011;10704;42.678;23.288;2023-04-24T04:11:03;16.30;;;9.93;;
21091;SDS011;10704;42.678;23.288;2023-04-24T04:13:28;13.98;;;9.55;;
21091;SDS011;10704;42.678;23.288;2023-04-24T04:15:55;19.17;;;11.57;;
21091;SDS011;10704;42.678;23.288;2023-04-24T04:18:21;14.68;;;9.35;;
21091;SDS011;10704;42.678;23.288;2023-04-24T04:20:47;16.52;;;10.38;;
21091;SDS011;10704;42.678;23.288;2023-04-24T04:23:14;19.00;;;10.23;;
21091;SDS011;10704;42.678;23.288;2023-04-24T04:26:00;17.42;;;9.85;;
21091;SDS011;10704;42.678;23.288;2023-04-24T04:28:37;18.63;;;10.52;;
21091;SDS011;10704;42.678;23.288;2023-04-24T04:31:04;19.17;;;10.38;;
21091;SDS011;10704;42.678;23.288;2023-04-24T04:33:33;19.10;;;10.48;;
21091;SDS011;10704;42.678;23.288;2023-04-24T04:36:01;21.35;;;10.30;;
21091;SDS011;10704;42.678;23.288;2023-04-24T04:38:28;19.20;;;10.90;;
21091;SDS011;10704;42.678;23.288;2023-04-24T04:41:06;17.35;;;9.50;;
21091;SDS011;10704;42.678;23.288;2023-04-24T04:43:33;19.88;;;11.05;;
21091;SDS011;10704;42.678;23.288;2023-04-24T04:45:59;14.90;;;10.27;;
21091;SDS011;10704;42.678;23.288;2023-04-24T04:48:26;18.08;;;10.90;;
21091;SDS011;10704;42.678;23.288;2023-04-24T04:50:54;22.63;;;11.70;;
21091;SDS011;10704;42.678;23.288;2023-04-24T04:53:21;17.77;;;9.80;;
21091;SDS011;10704;42.678;23.288;2023-04-24T04:55:47;12.35;;;7.70;;
21091;SDS011;10704;42.678;23.288;2023-04-24T04:58:15;13.77;;;6.25;;
21091;SDS011;10704;42.678;23.288;2023-04-24T05:00:42;15.55;;;6.25;;
21091;SDS011;10704;42.678;23.288;2023-04-24T05:03:25;11.57;;;6.03;;
21091;SDS011;10704;42.678;23.288;2023-04-24T05:06:02;10.93;;;6.28;;
21091;SDS011;10704;42.678;23.288;2023-04-24T05:08:31;11.73;;;6.32;;
21091;SDS011;10704;42.678;23.288;2023-04-24T05:10:57;9.60;;;5.53;;
21091;SDS011;10704;42.678;23.288;2023-04-24T05:13:25;13.23;;;6.40;;
21091;SDS011;10704;42.678;23.288;2023-04-24T05:15:52;9.23;;;5.80;;
21091;SDS011;10704;42.678;23.288;2023-04-24T05:18:17;11.23;;;5.93;;
21091;SDS011;10704;42.678;23.288;2023-04-24T05:20:44;14.27;;;5.72;;
21091;SDS011;10704;42.678;23.288;2023-04-24T05:23:10;14.18;;;6.03;;
21091;SDS011;10704;42.678;23.288;2023-04-24T05:25:39;9.80;;;6.07;;
21091;SDS011;10704;42.678;23.288;2023-04-24T05:28:10;12.70;;;5.93;;
21091;SDS011;10704;42.678;23.288;2023-04-24T05:30:37;10.98;;;6.22;;
21091;SDS011;10704;42.678;23.288;2023-04-24T05:33:03;9.77;;;5.95;;
21091;SDS011;10704;42.678;23.288;2023-04-24T05:35:32;11.48;;;6.82;;
21091;SDS011;10704;42.678;23.288;2023-04-24T05:37:58;15.85;;;6.90;;
21091;SDS011;10704;42.678;23.288;2023-04-24T05:40:24;11.85;;;6.65;;
21091;SDS011;10704;42.678;23.288;2023-04-24T05:42:50;14.60;;;6.95;;
21091;SDS011;10704;42.678;23.288;2023-04-24T05:45:22;10.55;;;6.25;;
21091;SDS011;10704;42.678;23.288;2023-04-24T05:47:48;12.45;;;6.05;;
21091;SDS011;10704;42.678;23.288;2023-04-24T05:50:16;12.48;;;6.97;;
21091;SDS011;10704;42.678;23.288;2023-04-24T05:52:42;14.73;;;7.00;;
21091;SDS011;10704;42.678;23.288;2023-04-24T05:55:22;10.88;;;6.60;;
21091;SDS011;10704;42.678;23.288;2023-04-24T05:57:48;11.93;;;7.03;;
21091;SDS011;10704;42.678;23.288;2023-04-24T06:00:14;15.18;;;7.40;;
21091;SDS011;10704;42.678;23.288;2023-04-24T06:02:48;13.85;;;8.43;;
21091;SDS011;10704;42.678;23.288;2023-04-24T06:05:14;13.38;;;7.80;;
21091;SDS011;10704;42.678;23.288;2023-04-24T06:07:40;13.98;;;8.02;;
21091;SDS011;10704;42.678;23.288;2023-04-24T06:10:08;16.15;;;8.23;;
21091;SDS011;10704;42.678;23.288;2023-04-24T06:12:39;15.18;;;7.97;;
21091;SDS011;10704;42.678;23.288;2023-04-24T06:15:11;15.32;;;7.90;;
21091;SDS011;10704;42.678;23.288;2023-04-24T06:17:56;14.73;;;8.23;;
21091;SDS011;10704;42.678;23.288;2023-04-24T06:20:23;16.33;;;8.15;;
21091;SDS011;10704;42.678;23.288;2023-04-24T06:22:49;16.33;;;8.70;;
21091;SDS011;10704;42.678;23.288;2023-04-24T06:25:15;11.63;;;7.82;;
21091;SDS011;10704;42.678;23.288;2023-04-24T06:27:41;15.75;;;8.60;;
21091;SDS011;10704;42.678;23.288;2023-04-24T06:30:07;14.23;;;8.02;;
21091;SDS011;10704;42.678;23.288;2023-04-24T06:32:33;14.27;;;8.23;;
21091;SDS011;10704;42.678;23.288;2023-04-24T06:34:59;12.88;;;7.90;;
21091;SDS011;10704;42.678;23.288;2023-04-24T06:37:25;19.10;;;8.80;;
21091;SDS011;10704;42.678;23.288;2023-04-24T06:39:51;12.60;;;8.00;;
21091;SDS011;10704;42.678;23.288;2023-04-24T06:42:17;12.43;;;7.75;;
21091;SDS011;10704;42.678;23.288;2023-04-24T06:44:43;14.23;;;7.97;;
21091;SDS011;10704;42.678;23.288;2023-04-24T06:47:09;14.98;;;8.30;;
21091;SDS011;10704;42.678;23.288;2023-04-24T06:49:39;13.23;;;8.55;;
21091;SDS011;10704;42.678;23.288;2023-04-24T06:52:05;12.93;;;8.27;;
21091;SDS011;10704;42.678;23.288;2023-04-24T06:54:31;18.67;;;9.05;;
21091;SDS011;10704;42.678;23.288;2023-04-24T06:56:58;14.88;;;9.07;;
21091;SDS011;10704;42.678;23.288;2023-04-24T06:59:26;14.57;;;9.38;;
21091;SDS011;10704;42.678;23.288;2023-04-24T07:01:53;18.30;;;10.02;;
21091;SDS011;10704;42.678;23.288;2023-04-24T07:04:19;22.50;;;10.65;;
21091;SDS011;10704;42.678;23.288;2023-04-24T07:06:45;19.30;;;10.73;;
21091;SDS011;10704;42.678;23.288;2023-04-24T07:09:11;19.33;;;8.45;;
21091;SDS011;10704;42.678;23.288;2023-04-24T07:11:39;15.23;;;8.70;;
21091;SDS011;10704;42.678;23.288;2023-04-24T07:14:06;12.13;;;8.25;;
21091;SDS011;10704;42.678;23.288;2023-04-24T07:16:32;15.32;;;8.90;;
21091;SDS011;10704;42.678;23.288;2023-04-24T07:18:58;16.20;;;9.25;;
21091;SDS011;10704;42.678;23.288;2023-04-24T07:21:24;17.17;;;10.02;;
21091;SDS011;10704;42.678;23.288;2023-04-24T07:23:50;22.85;;;10.02;;
21091;SDS011;10704;42.678;23.288;2023-04-24T07:26:17;17.00;;;9.05;;
21091;SDS011;10704;42.678;23.288;2023-04-24T07:28:42;14.60;;;8.43;;
21091;SDS011;10704;42.678;23.288;2023-04-24T07:31:08;17.15;;;8.75;;
21091;SDS011;10704;42.678;23.288;2023-04-24T07:33:36;13.98;;;8.38;;
21091;SDS011;10704;42.678;23.288;2023-04-24T07:36:02;12.63;;;7.93;;
21091;SDS011;10704;42.678;23.288;2023-04-24T07:38:31;11.75;;;6.63;;
21091;SDS011;10704;42.678;23.288;2023-04-24T07:40:57;10.68;;;7.18;;
21091;SDS011;10704;42.678;23.288;2023-04-24T07:43:23;12.20;;;6.57;;
21091;SDS011;10704;42.678;23.288;2023-04-24T07:45:52;11.30;;;6.05;;
21091;SDS011;10704;42.678;23.288;2023-04-24T07:48:18;10.57;;;7.13;;
21091;SDS011;10704;42.678;23.288;2023-04-24T07:50:44;14.65;;;7.13;;
21091;SDS011;10704;42.678;23.288;2023-04-24T07:53:10;11.02;;;7.07;;
21091;SDS011;10704;42.678;23.288;2023-04-24T07:55:36;10.23;;;6.03;;
21091;SDS011;10704;42.678;23.288;2023-04-24T07:58:02;10.70;;;6.60;;
21091;SDS011;10704;42.678;23.288;2023-04-24T08:00:28;13.27;;;8.40;;
21091;SDS011;10704;42.678;23.288;2023-04-24T08:02:53;10.90;;;6.93;;
21091;SDS011;10704;42.678;23.288;2023-04-24T08:05:19;9.85;;;6.80;;
21091;SDS011;10704;42.678;23.288;2023-04-24T08:07:45;13.40;;;7.38;;
21091;SDS011;10704;42.678;23.288;2023-04-24T08:10:14;11.45;;;6.47;;
21091;SDS011;10704;42.678;23.288;2023-04-24T08:12:40;11.13;;;6.50;;
21091;SDS011;10704;42.678;23.288;2023-04-24T08:15:06;9.80;;;6.30;;
21091;SDS011;10704;42.678;23.288;2023-04-24T08:17:33;12.25;;;7.15;;
21091;SDS011;10704;42.678;23.288;2023-04-24T08:20:01;13.68;;;6.97;;
21091;SDS011;10704;42.678;23.288;2023-04-24T08:22:28;16.05;;;8.48;;
21091;SDS011;10704;42.678;23.288;2023-04-24T08:24:55;10.18;;;7.30;;
21091;SDS011;10704;42.678;23.288;2023-04-24T08:27:22;14.70;;;8.20;;
21091;SDS011;10704;42.678;23.288;2023-04-24T08:29:49;18.08;;;8.50;;
21091;SDS011;10704;42.678;23.288;2023-04-24T08:32:15;12.85;;;8.25;;
21091;SDS011;10704;42.678;23.288;2023-04-24T08:34:41;13.90;;;7.63;;
21091;SDS011;10704;42.678;23.288;2023-04-24T08:37:07;12.90;;;7.63;;
21091;SDS011;10704;42.678;23.288;2023-04-24T08:39:33;13.05;;;8.45;;
21091;SDS011;10704;42.678;23.288;2023-04-24T08:41:59;10.63;;;7.72;;
21091;SDS011;10704;42.678;23.288;2023-04-24T08:44:34;13.57;;;7.95;;
21091;SDS011;10704;42.678;23.288;2023-04-24T08:47:04;14.48;;;7.88;;
21091;SDS011;10704;42.678;23.288;2023-04-24T08:49:31;12.23;;;7.78;;
21091;SDS011;10704;42.678;23.288;2023-04-24T08:51:58;12.30;;;7.53;;
21091;SDS011;10704;42.678;23.288;2023-04-24T08:54:25;12.95;;;8.18;;
21091;SDS011;10704;42.678;23.288;2023-04-24T08:56:51;15.25;;;7.68;;
21091;SDS011;10704;42.678;23.288;2023-04-24T08:59:22;11.38;;;7.45;;
21091;SDS011;10704;42.678;23.288;2023-04-24T09:01:48;12.43;;;7.18;;
21091;SDS011;10704;42.678;23.288;2023-04-24T09:04:16;12.95;;;6.90;;
21091;SDS011;10704;42.678;23.288;2023-04-24T09:06:45;9.48;;;7.20;;
21091;SDS011;10704;42.678;23.288;2023-04-24T09:09:11;10.93;;;7.30;;
21091;SDS011;10704;42.678;23.288;2023-04-24T09:11:37;13.18;;;6.80;;
21091;SDS011;10704;42.678;23.288;2023-04-24T09:14:03;13.50;;;7.57;;
21091;SDS011;10704;42.678;23.288;2023-04-24T09:16:29;9.73;;;6.35;;
21091;SDS011;10704;42.678;23.288;2023-04-24T09:18:58;10.48;;;6.82;;
21091;SDS011;10704;42.678;23.288;2023-04-24T09:21:24;10.52;;;6.90;;
21091;SDS011;10704;42.678;23.288;2023-04-24T09:24:06;10.95;;;6.13;;
21091;SDS011;10704;42.678;23.288;2023-04-24T09:26:39;11.02;;;7.15;;
21091;SDS011;10704;42.678;23.288;2023-04-24T09:29:05;10.40;;;6.20;;
21091;SDS011;10704;42.678;23.288;2023-04-24T09:31:31;10.45;;;5.70;;
21091;SDS011;10704;42.678;23.288;2023-04-24T09:34:04;11.57;;;5.90;;
21091;SDS011;10704;42.678;23.288;2023-04-24T09:36:40;8.52;;;6.72;;
21091;SDS011;10704;42.678;23.288;2023-04-24T09:39:08;10.35;;;6.68;;
21091;SDS011;10704;42.678;23.288;2023-04-24T09:41:57;12.13;;;6.28;;
21091;SDS011;10704;42.678;23.288;2023-04-24T09:44:27;10.20;;;5.60;;
21091;SDS011;10704;42.678;23.288;2023-04-24T09:49:24;14.00;;;5.78;;
21091;SDS011;10704;42.678;23.288;2023-04-24T09:51:51;8.68;;;5.22;;
21091;SDS011;10704;42.678;23.288;2023-04-24T09:54:18;11.80;;;5.85;;
21091;SDS011;10704;42.678;23.288;2023-04-24T09:56:46;7.78;;;5.65;;
21091;SDS011;10704;42.678;23.288;2023-04-24T09:59:15;10.27;;;5.55;;
21091;SDS011;10704;42.678;23.288;2023-04-24T10:01:44;8.45;;;5.20;;
21091;SDS011;10704;42.678;23.288;2023-04-24T10:04:21;12.20;;;5.90;;
21091;SDS011;10704;42.678;23.288;2023-04-24T10:06:49;7.97;;;5.00;;
21091;SDS011;10704;42.678;23.288;2023-04-24T10:09:17;11.27;;;5.05;;
21091;SDS011;10704;42.678;23.288;2023-04-24T10:11:51;8.38;;;5.05;;
21091;SDS011;10704;42.678;23.288;2023-04-24T10:14:19;8.25;;;4.63;;
21091;SDS011;10704;42.678;23.288;2023-04-24T10:16:46;9.55;;;5.25;;
21091;SDS011;10704;42.678;23.288;2023-04-24T10:19:13;10.88;;;5.30;;
21091;SDS011;10704;42.678;23.288;2023-04-24T10:21:41;7.25;;;4.20;;
21091;SDS011;10704;42.678;23.288;2023-04-24T10:24:14;7.05;;;4.30;;
21091;SDS011;10704;42.678;23.288;2023-04-24T10:26:46;11.70;;;4.95;;
21091;SDS011;10704;42.678;23.288;2023-04-24T10:29:18;8.85;;;4.57;;
21091;SDS011;10704;42.678;23.288;2023-04-24T10:31:44;7.68;;;3.75;;
21091;SDS011;10704;42.678;23.288;2023-04-24T10:34:11;8.20;;;4.47;;
21091;SDS011;10704;42.678;23.288;2023-04-24T10:36:40;10.55;;;4.28;;
21091;SDS011;10704;42.678;23.288;2023-04-24T10:39:10;6.65;;;4.30;;
21091;SDS011;10704;42.678;23.288;2023-04-24T10:41:37;11.75;;;5.85;;
21091;SDS011;10704;42.678;23.288;2023-04-24T10:44:07;7.00;;;4.18;;
21091;SDS011;10704;42.678;23.288;2023-04-24T10:46:39;6.85;;;4.13;;
21091;SDS011;10704;42.678;23.288;2023-04-24T10:49:08;13.25;;;4.75;;
21091;SDS011;10704;42.678;23.288;2023-04-24T10:51:44;9.15;;;4.70;;
21091;SDS011;10704;42.678;23.288;2023-04-24T10:54:26;10.90;;;4.93;;
21091;SDS011;10704;42.678;23.288;2023-04-24T11:00:16;9.27;;;4.93;;
21091;SDS011;10704;42.678;23.288;2023-04-24T11:02:47;11.63;;;4.90;;
21091;SDS011;10704;42.678;23.288;2023-04-24T11:05:16;5.60;;;3.40;;
21091;SDS011;10704;42.678;23.288;2023-04-24T11:08:09;5.93;;;3.60;;
21091;SDS011;10704;42.678;23.288;2023-04-24T11:10:38;8.73;;;4.28;;
21091;SDS011;10704;42.678;23.288;2023-04-24T11:13:05;9.05;;;4.57;;
21091;SDS011;10704;42.678;23.288;2023-04-24T11:15:31;6.82;;;3.10;;
21091;SDS011;10704;42.678;23.288;2023-04-24T11:17:57;7.55;;;4.15;;
21091;SDS011;10704;42.678;23.288;2023-04-24T11:20:23;8.00;;;4.68;;
21091;SDS011;10704;42.678;23.288;2023-04-24T11:22:52;7.95;;;4.97;;
21091;SDS011;10704;42.678;23.288;2023-04-24T11:25:19;6.55;;;3.85;;
21091;SDS011;10704;42.678;23.288;2023-04-24T11:27:47;6.80;;;4.68;;
21091;SDS011;10704;42.678;23.288;2023-04-24T11:30:19;9.07;;;5.43;;
21091;SDS011;10704;42.678;23.288;2023-04-24T11:32:50;7.47;;;5.00;;
21091;SDS011;10704;42.678;23.288;2023-04-24T11:35:17;7.18;;;4.70;;
21091;SDS011;10704;42.678;23.288;2023-04-24T11:37:49;13.73;;;5.03;;
21091;SDS011;10704;42.678;23.288;2023-04-24T11:40:17;7.63;;;5.18;;
21091;SDS011;10704;42.678;23.288;2023-04-24T11:42:53;9.73;;;4.90;;
21091;SDS011;10704;42.678;23.288;2023-04-24T11:45:25;5.88;;;4.40;;
21091;SDS011;10704;42.678;23.288;2023-04-24T11:47:53;6.82;;;4.68;;
21091;SDS011;10704;42.678;23.288;2023-04-24T11:50:21;8.10;;;4.60;;
21091;SDS011;10704;42.678;23.288;2023-04-24T11:52:50;7.90;;;4.78;;
21091;SDS011;10704;42.678;23.288;2023-04-24T11:57:43;7.65;;;4.90;;
21091;SDS011;10704;42.678;23.288;2023-04-24T12:00:17;7.25;;;4.28;;
21091;SDS011;10704;42.678;23.288;2023-04-24T12:02:44;7.63;;;4.38;;
21091;SDS011;10704;42.678;23.288;2023-04-24T12:05:20;6.57;;;4.50;;
21091;SDS011;10704;42.678;23.288;2023-04-24T12:07:47;5.75;;;4.07;;
21091;SDS011;10704;42.678;23.288;2023-04-24T12:10:12;9.65;;;4.32;;
21091;SDS011;10704;42.678;23.288;2023-04-24T12:12:39;5.55;;;3.92;;
21091;SDS011;10704;42.678;23.288;2023-04-24T12:15:09;7.68;;;3.50;;
21091;SDS011;10704;42.678;23.288;2023-04-24T12:17:35;9.55;;;4.72;;
21091;SDS011;10704;42.678;23.288;2023-04-24T12:20:05;6.00;;;3.67;;
21091;SDS011;10704;42.678;23.288;2023-04-24T12:22:46;5.35;;;3.70;;
21091;SDS011;10704;42.678;23.288;2023-04-24T12:25:20;6.68;;;3.63;;
21091;SDS011;10704;42.678;23.288;2023-04-24T12:27:54;6.30;;;3.38;;
21091;SDS011;10704;42.678;23.288;2023-04-24T12:30:33;6.22;;;3.35;;
21091;SDS011;10704;42.678;23.288;2023-04-24T12:33:02;6.03;;;4.30;;
21091;SDS011;10704;42.678;23.288;2023-04-24T12:35:29;6.65;;;3.72;;
21091;SDS011;10704;42.678;23.288;2023-04-24T12:38:15;5.25;;;3.85;;
21091;SDS011;10704;42.678;23.288;2023-04-24T12:40:41;8.02;;;3.83;;
21091;SDS011;10704;42.678;23.288;2023-04-24T12:43:14;4.85;;;3.72;;
21091;SDS011;10704;42.678;23.288;2023-04-24T12:45:41;7.90;;;5.53;;
21091;SDS011;10704;42.678;23.288;2023-04-24T12:48:07;6.35;;;4.68;;
21091;SDS011;10704;42.678;23.288;2023-04-24T12:50:33;8.00;;;4.32;;
21091;SDS011;10704;42.678;23.288;2023-04-24T12:52:59;6.28;;;4.30;;
21091;SDS011;10704;42.678;23.288;2023-04-24T12:55:25;6.93;;;4.47;;
21091;SDS011;10704;42.678;23.288;2023-04-24T12:57:51;8.93;;;4.65;;
21091;SDS011;10704;42.678;23.288;2023-04-24T13:00:18;10.63;;;4.63;;
21091;SDS011;10704;42.678;23.288;2023-04-24T13:02:44;7.75;;;4.10;;
21091;SDS011;10704;42.678;23.288;2023-04-24T13:05:10;7.88;;;4.07;;
21091;SDS011;10704;42.678;23.288;2023-04-24T13:07:36;6.05;;;4.38;;
21091;SDS011;10704;42.678;23.288;2023-04-24T13:10:02;8.88;;;4.35;;
21091;SDS011;10704;42.678;23.288;2023-04-24T13:12:28;7.65;;;4.00;;
21091;SDS011;10704;42.678;23.288;2023-04-24T13:14:54;6.63;;;4.65;;
21091;SDS011;10704;42.678;23.288;2023-04-24T13:17:21;6.28;;;4.03;;
21091;SDS011;10704;42.678;23.288;2023-04-24T13:19:49;4.93;;;3.33;;
21091;SDS011;10704;42.678;23.288;2023-04-24T13:22:16;8.02;;;3.53;;
21091;SDS011;10704;42.678;23.288;2023-04-24T13:24:44;7.88;;;4.35;;
21091;SDS011;10704;42.678;23.288;2023-04-24T13:27:10;7.63;;;4.03;;
21091;SDS011;10704;42.678;23.288;2023-04-24T13:29:36;6.72;;;4.15;;
21091;SDS011;10704;42.678;23.288;2023-04-24T13:32:02;7.50;;;3.85;;
21091;SDS011;10704;42.678;23.288;2023-04-24T13:34:28;6.07;;;3.58;;
21091;SDS011;10704;42.678;23.288;2023-04-24T13:36:55;6.32;;;4.00;;
21091;SDS011;10704;42.678;23.288;2023-04-24T13:39:23;6.35;;;4.25;;
21091;SDS011;10704;42.678;23.288;2023-04-24T13:41:50;9.73;;;4.05;;
21091;SDS011;10704;42.678;23.288;2023-04-24T13:44:17;7.40;;;3.67;;
21091;SDS011;10704;42.678;23.288;2023-04-24T13:46:44;6.35;;;3.63;;
21091;SDS011;10704;42.678;23.288;2023-04-24T13:49:11;6.32;;;3.50;;
21091;SDS011;10704;42.678;23.288;2023-04-24T13:51:39;8.10;;;4.22;;
21091;SDS011;10704;42.678;23.288;2023-04-24T13:54:05;5.97;;;3.60;;
21091;SDS011;10704;42.678;23.288;2023-04-24T13:56:31;5.35;;;3.40;;
21091;SDS011;10704;42.678;23.288;2023-04-24T13:58:57;4.60;;;3.35;;
21091;SDS011;10704;42.678;23.288;2023-04-24T14:01:23;6.40;;;3.45;;
21091;SDS011;10704;42.678;23.288;2023-04-24T14:03:50;4.90;;;3.38;;
21091;SDS011;10704;42.678;23.288;2023-04-24T14:06:17;8.55;;;3.65;;
21091;SDS011;10704;42.678;23.288;2023-04-24T14:08:44;6.00;;;3.83;;
21091;SDS011;10704;42.678;23.288;2023-04-24T14:11:10;6.28;;;3.45;;
21091;SDS011;10704;42.678;23.288;2023-04-24T14:13:36;6.75;;;3.50;;
21091;SDS011;10704;42.678;23.288;2023-04-24T14:16:03;5.22;;;3.40;;
21091;SDS011;10704;42.678;23.288;2023-04-24T14:18:29;5.05;;;3.03;;
21091;SDS011;10704;42.678;23.288;2023-04-24T14:20:55;6.22;;;3.88;;
21091;SDS011;10704;42.678;23.288;2023-04-24T14:23:21;7.65;;;4.05;;
21091;SDS011;10704;42.678;23.288;2023-04-24T14:25:47;8.00;;;3.72;;
21091;SDS011;10704;42.678;23.288;2023-04-24T14:28:16;6.32;;;3.65;;
21091;SDS011;10704;42.678;23.288;2023-04-24T14:30:43;8.07;;;3.78;;
21091;SDS011;10704;42.678;23.288;2023-04-24T14:33:09;5.70;;;3.47;;
21091;SDS011;10704;42.678;23.288;2023-04-24T14:35:35;5.55;;;3.80;;